createdAt,value
2018-12-18T04:16:17.936Z,10.63
2018-12-18T04:18:46.631Z,9.57
2018-12-18T04:21:15.178Z,10.43
2018-12-18T04:23:43.700Z,10.57
2018-12-18T04:26:12.214Z,9.40
2018-12-18T04:28:40.769Z,10.80
2018-12-18T04:31:09.075Z,7.87
2018-12-18T04:33:37.626Z,7.50
2018-12-18T04:36:05.890Z,13.87
2018-12-18T04:38:34.178Z,9.53
2018-12-18T04:41:03.159Z,10.08
2018-12-18T04:43:31.526Z,9.90
2018-12-18T04:46:00.030Z,12.97
2018-12-18T04:48:28.336Z,9.53
2018-12-18T04:50:57.129Z,11.80
2018-12-18T04:53:25.421Z,9.70
2018-12-18T04:55:53.966Z,8.68
2018-12-18T04:58:22.792Z,6.77
2018-12-18T05:00:51.078Z,7.80
2018-12-18T05:03:19.627Z,7.22
2018-12-18T05:05:48.049Z,8.37
2018-12-18T05:08:16.926Z,6.20
2018-12-18T05:10:46.307Z,8.47
2018-12-18T05:13:14.902Z,9.43
2018-12-18T05:15:43.200Z,9.87
2018-12-18T05:18:11.782Z,11.12
2018-12-18T05:20:40.032Z,9.33
2018-12-18T05:23:08.961Z,11.55
2018-12-18T05:25:37.501Z,8.27
2018-12-18T05:28:06.073Z,13.78
2018-12-18T05:30:34.394Z,8.40
2018-12-18T05:33:02.669Z,9.90
2018-12-18T05:35:31.215Z,8.70
2018-12-18T05:37:59.834Z,17.03
2018-12-18T05:40:28.871Z,12.47
2018-12-18T05:42:57.125Z,6.90
2018-12-18T05:45:25.937Z,9.40
2018-12-18T05:47:54.195Z,6.80
2018-12-18T05:50:22.470Z,7.67
2018-12-18T05:52:50.882Z,10.77
2018-12-18T05:55:19.417Z,13.67
2018-12-18T05:57:47.985Z,7.10
2018-12-18T06:00:17.535Z,6.03
2018-12-18T06:02:46.106Z,7.47
2018-12-18T06:05:14.442Z,8.37
2018-12-18T06:07:43.028Z,6.28
2018-12-18T06:10:12.151Z,7.03
2018-12-18T06:12:40.777Z,13.20
2018-12-18T06:15:09.223Z,10.43
2018-12-18T06:17:37.477Z,9.90
2018-12-18T06:20:06.398Z,10.23
2018-12-18T06:22:34.810Z,12.60
2018-12-18T06:25:03.685Z,12.53
2018-12-18T06:27:31.960Z,7.93
2018-12-18T06:30:00.279Z,10.77
2018-12-18T06:32:28.575Z,10.60
2018-12-18T06:34:56.829Z,10.33
2018-12-18T06:37:25.405Z,13.03
2018-12-18T06:39:54.042Z,11.28
2018-12-18T06:42:22.603Z,12.50
2018-12-18T06:44:51.298Z,7.20
2018-12-18T06:47:19.993Z,8.23
2018-12-18T06:49:48.861Z,6.43
2018-12-18T06:52:17.497Z,7.53
2018-12-18T06:54:45.940Z,6.80
2018-12-18T06:57:15.134Z,5.90
2018-12-18T06:59:43.588Z,5.53
2018-12-18T07:02:11.848Z,6.90
2018-12-18T07:04:40.396Z,5.53
2018-12-18T07:07:08.961Z,10.50
2018-12-18T07:09:37.562Z,8.03
2018-12-18T07:12:08.598Z,10.18
2018-12-18T07:19:40.938Z,9.93
2018-12-18T07:22:09.546Z,8.53
2018-12-18T07:24:38.183Z,10.10
2018-12-18T07:27:07.075Z,14.00
2018-12-18T07:29:35.689Z,10.93
2018-12-18T07:32:04.658Z,13.57
2018-12-18T07:34:33.454Z,11.83
2018-12-18T07:37:02.520Z,14.53
2018-12-18T07:39:30.917Z,13.57
2018-12-18T07:41:59.705Z,12.20
2018-12-18T07:44:28.465Z,10.07
2018-12-18T07:46:57.144Z,7.13
2018-12-18T07:49:27.812Z,6.03
2018-12-18T07:51:56.884Z,8.70
2018-12-18T07:54:25.729Z,6.58
2018-12-18T07:56:55.001Z,9.48
2018-12-18T07:59:23.618Z,8.00
2018-12-18T08:01:52.192Z,9.50
2018-12-18T08:04:21.315Z,10.47
2018-12-18T08:06:50.208Z,5.47
2018-12-18T08:09:18.921Z,11.40
2018-12-18T08:11:47.351Z,17.13
2018-12-18T08:14:15.909Z,6.37
2018-12-18T08:16:44.460Z,4.65
2018-12-18T08:19:12.978Z,6.40
2018-12-18T08:21:41.695Z,4.20
2018-12-18T08:24:10.312Z,4.83
2018-12-18T08:26:38.597Z,9.60
2018-12-18T08:29:07.158Z,5.28
2018-12-18T08:31:35.469Z,9.70
2018-12-18T08:34:04.851Z,3.37
2018-12-18T08:36:33.386Z,4.10
2018-12-18T08:39:02.539Z,4.10
2018-12-18T08:41:30.831Z,5.80
2018-12-18T08:43:59.462Z,6.80
2018-12-18T08:46:28.917Z,3.47
2018-12-18T08:48:57.201Z,4.47
2018-12-18T08:51:25.592Z,3.33
2018-12-18T08:53:54.200Z,3.93
2018-12-18T08:56:22.771Z,5.08
2018-12-18T08:58:51.254Z,3.23
2018-12-18T09:01:19.744Z,7.60
2018-12-18T09:03:48.011Z,6.67
2018-12-18T09:06:16.593Z,7.27
2018-12-18T09:08:44.898Z,3.67
2018-12-18T09:11:13.630Z,5.97
2018-12-18T09:13:42.566Z,4.17
2018-12-18T09:16:16.446Z,4.10
2018-12-18T09:18:44.761Z,2.80
2018-12-18T09:21:14.670Z,4.80
2018-12-18T09:23:43.022Z,3.33
2018-12-18T09:26:11.774Z,2.57
2018-12-18T09:28:40.106Z,6.77
2018-12-18T09:31:08.464Z,4.40
2018-12-18T09:33:37.707Z,4.43
2018-12-18T09:36:06.795Z,3.23
2018-12-18T09:38:40.810Z,6.05
2018-12-18T09:41:14.563Z,2.57
2018-12-18T09:43:49.092Z,2.60
2018-12-18T09:46:17.704Z,1.70
2018-12-18T09:48:46.129Z,1.73
2018-12-18T09:51:15.014Z,2.02
2018-12-18T09:53:43.730Z,2.40
2018-12-18T09:56:12.598Z,1.60
2018-12-18T09:58:41.200Z,3.13
2018-12-18T10:01:10.531Z,1.62
2018-12-18T10:03:39.172Z,1.60
2018-12-18T10:06:07.469Z,2.30
2018-12-18T10:08:35.894Z,4.50
2018-12-18T10:11:05.411Z,2.57
2018-12-18T10:13:33.908Z,1.90
2018-12-18T10:16:02.447Z,2.50
2018-12-18T10:18:30.724Z,2.07
2018-12-18T10:20:59.008Z,2.37
2018-12-18T10:23:27.531Z,3.13
2018-12-18T10:25:56.266Z,3.30
2018-12-18T10:28:24.961Z,1.80
2018-12-18T10:30:53.510Z,3.90
2018-12-18T10:33:21.986Z,2.53
2018-12-18T10:35:50.520Z,7.70
2018-12-18T10:38:19.082Z,6.53
2018-12-18T10:40:47.597Z,2.50
2018-12-18T10:43:16.397Z,2.93
2018-12-18T10:45:44.790Z,6.90
2018-12-18T10:48:14.157Z,2.93
2018-12-18T10:50:43.052Z,7.77
2018-12-18T10:53:11.491Z,4.50
2018-12-18T10:55:40.513Z,5.30
2018-12-18T10:58:09.451Z,7.23
2018-12-18T11:02:46.921Z,3.22
2018-12-18T11:05:15.893Z,4.47
2018-12-18T11:07:44.477Z,3.47
2018-12-18T11:10:13.212Z,3.90
2018-12-18T11:12:44.065Z,3.73
2018-12-18T11:15:13.051Z,3.92
2018-12-18T11:17:41.635Z,6.80
2018-12-18T11:20:10.480Z,4.90
2018-12-18T11:22:39.354Z,6.00
2018-12-18T11:25:08.086Z,5.60
2018-12-18T11:32:38.326Z,10.10
2018-12-18T11:35:07.502Z,6.60
2018-12-18T11:37:35.831Z,4.97
2018-12-18T11:40:05.648Z,5.23
2018-12-18T11:42:34.361Z,7.13
2018-12-18T11:45:03.263Z,15.20
2018-12-18T11:47:31.962Z,5.97
2018-12-18T11:50:00.702Z,6.73
2018-12-18T11:52:28.998Z,5.83
2018-12-18T11:54:57.312Z,7.13
2018-12-18T11:57:25.795Z,5.93
2018-12-18T11:59:54.103Z,7.87
2018-12-18T12:02:22.572Z,5.80
2018-12-18T12:04:51.193Z,11.15
2018-12-18T12:07:19.593Z,13.93
2018-12-18T12:09:47.894Z,13.27
2018-12-18T12:12:16.487Z,10.13
2018-12-18T12:14:45.200Z,8.10
2018-12-18T12:17:14.417Z,6.10
2018-12-18T12:19:42.983Z,6.60
2018-12-18T12:22:11.554Z,10.08
2018-12-18T12:24:39.982Z,10.57
2018-12-18T12:27:13.556Z,6.90
2018-12-18T12:29:42.102Z,7.90
2018-12-18T12:32:10.453Z,11.33
2018-12-18T12:34:38.770Z,10.17
2018-12-18T12:37:07.351Z,7.85
2018-12-18T12:39:35.986Z,7.10
2018-12-18T12:42:04.261Z,6.07
2018-12-18T12:44:32.808Z,9.68
2018-12-18T12:47:01.390Z,10.82
2018-12-18T12:49:35.797Z,6.92
2018-12-18T12:52:04.499Z,7.17
2018-12-18T12:54:33.839Z,6.87
2018-12-18T12:57:02.402Z,8.88
2018-12-18T12:59:30.894Z,5.93
2018-12-18T13:01:59.306Z,6.83
2018-12-18T13:04:27.875Z,6.87
2018-12-18T13:06:56.394Z,9.70
2018-12-18T13:09:24.753Z,7.70
2018-12-18T13:11:53.046Z,6.50
2018-12-18T13:14:21.580Z,4.20
2018-12-18T13:16:49.855Z,3.73
2018-12-18T13:19:18.546Z,3.37
2018-12-18T13:21:46.810Z,3.60
2018-12-18T13:24:15.470Z,4.65
2018-12-18T13:26:44.228Z,3.50
2018-12-18T13:29:12.669Z,3.70
2018-12-18T13:31:41.399Z,6.28
2018-12-18T13:34:09.834Z,3.00
2018-12-18T13:36:42.965Z,2.70
2018-12-18T13:39:09.077Z,3.67
2018-12-18T13:41:37.628Z,6.72
2018-12-18T13:44:06.175Z,6.50
2018-12-18T13:46:34.716Z,3.12
2018-12-18T13:49:03.000Z,3.57
2018-12-18T13:51:31.631Z,4.50
2018-12-18T13:54:00.234Z,5.28
2018-12-18T13:56:28.497Z,5.60
2018-12-18T13:58:56.754Z,2.80
2018-12-18T14:01:25.358Z,4.07
2018-12-18T14:03:54.298Z,7.50
2018-12-18T14:06:22.946Z,7.20
2018-12-18T14:08:51.500Z,3.80
2018-12-18T14:11:20.029Z,4.53
2018-12-18T14:13:48.307Z,5.50
2018-12-18T14:16:16.754Z,5.00
2018-12-18T14:18:45.999Z,3.67
2018-12-18T14:21:15.369Z,6.00
2018-12-18T14:23:43.821Z,4.87
2018-12-18T14:26:12.389Z,8.05
2018-12-18T14:28:40.686Z,6.40
2018-12-18T14:31:09.991Z,5.28
2018-12-18T14:33:38.278Z,7.57
2018-12-18T14:36:06.694Z,7.07
2018-12-18T14:38:35.261Z,6.35
2018-12-18T14:41:04.217Z,5.28
2018-12-18T14:43:32.493Z,7.70
2018-12-18T14:46:01.022Z,11.23
2018-12-18T14:48:29.406Z,10.80
2018-12-18T14:50:57.810Z,11.33
2018-12-18T14:53:26.773Z,11.68
2018-12-18T14:55:55.087Z,8.90
2018-12-18T14:58:23.661Z,6.78
2018-12-18T15:00:51.938Z,11.73
2018-12-18T15:03:20.200Z,9.53
2018-12-18T15:05:48.794Z,7.03
2018-12-18T15:08:17.045Z,5.50
2018-12-18T15:10:45.933Z,7.40
2018-12-18T15:13:14.265Z,9.33
2018-12-18T15:15:42.545Z,9.23
2018-12-18T15:18:10.922Z,7.90
2018-12-18T15:20:39.177Z,11.37
2018-12-18T15:23:07.441Z,10.37
2018-12-18T15:25:35.973Z,7.63
2018-12-18T15:28:04.225Z,8.23
2018-12-18T15:30:32.692Z,9.80
2018-12-18T15:33:01.230Z,6.37
2018-12-18T15:35:30.426Z,9.80
2018-12-18T15:37:59.142Z,9.30
2018-12-18T15:40:27.962Z,7.40
2018-12-18T15:42:56.316Z,7.00
2018-12-18T15:45:24.849Z,6.15
2018-12-18T15:47:53.133Z,8.70
2018-12-18T15:50:22.093Z,8.20
2018-12-18T15:52:50.386Z,6.30
2018-12-18T15:55:18.930Z,7.45
2018-12-18T15:57:47.210Z,7.67
2018-12-18T16:00:15.671Z,6.57
2018-12-18T16:02:44.213Z,5.47
2018-12-18T16:05:12.784Z,7.70
2018-12-18T16:07:41.326Z,7.17
2018-12-18T16:10:10.002Z,9.97
2018-12-18T16:12:38.386Z,8.97
2018-12-18T16:15:08.155Z,8.53
2018-12-18T16:17:36.497Z,8.40
2018-12-18T16:20:05.956Z,6.92
2018-12-18T16:22:34.514Z,6.45
2018-12-18T16:25:03.866Z,9.10
2018-12-18T16:27:32.458Z,9.20
2018-12-18T16:30:00.741Z,11.77
2018-12-18T16:32:29.121Z,11.00
2018-12-18T16:34:57.600Z,8.67
2018-12-18T16:37:25.854Z,10.70
2018-12-18T16:39:54.250Z,14.17
2018-12-18T16:42:22.598Z,11.30
2018-12-18T16:44:51.828Z,9.38
2018-12-18T16:47:20.410Z,9.80
2018-12-18T16:49:48.949Z,12.37
2018-12-18T16:52:17.622Z,9.97
2018-12-18T16:54:45.926Z,16.27
2018-12-18T16:57:14.311Z,15.93
2018-12-18T16:59:42.614Z,18.63
2018-12-18T17:02:10.909Z,15.37
2018-12-18T17:04:39.186Z,22.70
2018-12-18T17:07:08.381Z,21.33
2018-12-18T17:09:36.693Z,27.02
2018-12-18T17:12:05.234Z,19.47
2018-12-18T17:14:36.798Z,27.07
2018-12-18T17:17:05.705Z,23.20
2018-12-18T17:19:34.549Z,22.47
2018-12-18T17:22:02.829Z,27.70
2018-12-18T17:24:31.393Z,20.90
2018-12-18T17:26:59.774Z,25.77
2018-12-18T17:29:28.130Z,28.53
2018-12-18T17:31:56.539Z,27.80
2018-12-18T17:34:25.010Z,27.00
2018-12-18T17:36:53.707Z,30.30
2018-12-18T17:39:22.472Z,33.37
2018-12-18T17:41:50.762Z,38.30
2018-12-18T17:44:19.060Z,35.87
2018-12-18T17:46:47.333Z,35.90
2018-12-18T17:49:15.607Z,36.57
2018-12-18T17:51:44.131Z,38.67
2018-12-18T17:54:12.763Z,34.13
2018-12-18T17:56:41.609Z,40.08
2018-12-18T17:59:10.141Z,31.65
2018-12-18T18:01:38.458Z,36.83
2018-12-18T18:04:07.046Z,35.93
2018-12-18T18:06:35.658Z,39.80
2018-12-18T18:09:07.209Z,32.80
2018-12-18T18:11:35.487Z,41.00
2018-12-18T18:14:04.904Z,38.78
2018-12-18T18:16:33.213Z,37.33
2018-12-18T18:19:01.659Z,39.83
2018-12-18T18:21:29.939Z,42.27
2018-12-18T18:23:58.695Z,39.40
2018-12-18T18:26:27.245Z,42.83
2018-12-18T18:28:55.991Z,45.87
2018-12-18T18:31:24.543Z,43.80
2018-12-18T18:33:53.122Z,53.10
2018-12-18T18:36:21.666Z,41.33
2018-12-18T18:38:50.198Z,39.57
2018-12-18T18:41:18.847Z,43.87
2018-12-18T18:43:47.167Z,43.97
2018-12-18T18:46:15.501Z,50.57
2018-12-18T18:48:43.797Z,40.73
2018-12-18T18:51:12.189Z,42.33
2018-12-18T18:53:40.824Z,41.68
2018-12-18T18:56:09.689Z,42.43
2018-12-18T18:58:37.994Z,36.53
2018-12-18T19:01:06.571Z,36.97
2018-12-18T19:03:35.177Z,44.10
2018-12-18T19:06:04.197Z,32.50
2018-12-18T19:08:32.738Z,35.60
2018-12-18T19:11:01.078Z,34.60
2018-12-18T19:13:30.130Z,28.13
2018-12-18T19:15:59.043Z,33.50
2018-12-18T19:18:27.361Z,31.00
2018-12-18T19:20:55.693Z,24.00
2018-12-18T19:23:24.289Z,27.10
2018-12-18T19:25:52.589Z,29.03
2018-12-18T19:28:21.193Z,27.77
2018-12-18T19:30:49.646Z,30.90
2018-12-18T19:33:18.242Z,31.73
2018-12-18T19:35:46.526Z,27.17
2018-12-18T19:38:14.940Z,27.53
2018-12-18T19:40:43.517Z,29.67
2018-12-18T19:43:11.907Z,31.13
2018-12-18T19:45:40.345Z,32.47
2018-12-18T19:48:08.841Z,26.63
2018-12-18T19:50:37.226Z,34.47
2018-12-18T19:53:06.612Z,30.23
2018-12-18T19:55:35.326Z,34.43
2018-12-18T19:58:04.229Z,28.10
2018-12-18T20:00:32.827Z,26.03
2018-12-18T20:03:01.111Z,27.93
2018-12-18T20:05:29.677Z,28.57
2018-12-18T20:07:57.982Z,30.10
2018-12-18T20:10:26.256Z,27.70
2018-12-18T20:12:54.662Z,34.40
2018-12-18T20:15:23.346Z,29.65
2018-12-18T20:17:51.826Z,32.10
2018-12-18T20:20:20.500Z,33.83
2018-12-18T20:22:49.101Z,34.80
2018-12-18T20:25:17.671Z,34.70
2018-12-18T20:27:46.659Z,27.25
2018-12-18T20:30:15.384Z,31.70
2018-12-18T20:32:43.691Z,30.15
2018-12-18T20:35:12.162Z,33.20
2018-12-18T20:37:40.517Z,33.43
2018-12-18T20:40:10.763Z,27.87
2018-12-18T20:42:39.324Z,25.52
2018-12-18T20:45:08.552Z,32.00
2018-12-18T20:47:37.005Z,32.33
2018-12-18T20:50:06.823Z,29.77
2018-12-18T20:52:35.147Z,28.93
2018-12-18T20:55:04.461Z,26.37
2018-12-18T20:57:32.742Z,29.07
2018-12-18T21:00:01.589Z,29.73
2018-12-18T21:02:29.913Z,32.73
2018-12-18T21:04:58.567Z,33.27
2018-12-18T21:07:26.967Z,30.87
2018-12-18T21:09:55.405Z,30.77
2018-12-18T21:12:24.090Z,31.10
2018-12-18T21:14:52.457Z,29.87
2018-12-18T21:17:21.441Z,29.77
2018-12-18T21:19:49.784Z,33.07
2018-12-18T21:22:18.130Z,29.80
2018-12-18T21:24:46.458Z,24.50
2018-12-18T21:27:14.933Z,29.53
2018-12-18T21:29:43.415Z,33.70
2018-12-18T21:32:11.754Z,32.37
2018-12-18T21:34:40.158Z,31.73
2018-12-18T21:37:08.470Z,36.20
2018-12-18T21:39:36.952Z,30.27
2018-12-18T21:42:05.457Z,33.07
2018-12-18T21:44:34.155Z,44.03
2018-12-18T21:47:02.776Z,31.13
2018-12-18T21:49:31.593Z,29.00
2018-12-18T21:52:00.099Z,32.70
2018-12-18T21:54:28.422Z,32.57
2018-12-18T21:56:56.732Z,34.67
2018-12-18T21:59:25.220Z,36.67
2018-12-18T22:01:53.506Z,37.03
2018-12-18T22:04:22.223Z,33.37
2018-12-18T22:06:50.515Z,36.20
2018-12-18T22:09:19.045Z,31.07
2018-12-18T22:11:47.762Z,35.37
2018-12-18T22:14:16.066Z,32.20
2018-12-18T22:16:44.354Z,35.27
2018-12-18T22:19:12.691Z,31.73
2018-12-18T22:21:40.976Z,35.90
2018-12-18T22:24:09.273Z,40.00
2018-12-18T22:26:37.775Z,34.67
2018-12-18T22:29:06.096Z,38.43
2018-12-18T22:31:34.394Z,43.57
2018-12-18T22:34:02.693Z,37.43
2018-12-18T22:36:31.084Z,40.13
2018-12-18T22:38:59.371Z,43.73
2018-12-18T22:41:28.190Z,39.93
2018-12-18T22:43:56.646Z,42.37
2018-12-18T22:46:24.949Z,45.23
2018-12-18T22:48:53.230Z,39.60
2018-12-18T22:51:21.635Z,42.43
2018-12-18T22:53:50.135Z,45.77
2018-12-18T22:56:18.481Z,42.10
2018-12-18T22:58:47.066Z,47.03
